Hellas — J8B3126 — position and weather

sailwx.info

Track history (hours):
 
Tides and Currents Weather Stations Pressure Air Temp Water Temp Dewpoint Dewpoint Depression Visibility Wind Speed Wind Dir Waves Ship Positions

Hellas

Last reported at 2014-Aug-30 12:14 UTC. Time now 2014-Aug-31 02:35 UTC.
Position N 50°34' E 000°17'.

Length 50 m; draft 4.5 m.

Type: Tug. MMSI: 375113000.

Date/timePositionNaut miles runAvg speedWind from/ knotsBaromVisibWave heightAir tempDewpointWater temp
2014-Aug-30 12:14N 50°34' E 000°17'6 8.6
2014-Aug-30 11:33N 50°35' E 000°26'9 8.6
2014-Aug-30 10:33N 50°38' E 000°38'10 9.7
2014-Aug-30 09:33N 50°44' E 000°50'1211.4
2014-Aug-30 08:30N 50°52' E 001°05'1611.9
2014-Aug-30 07:07N 51°03' E 001°25'611.0
2014-Aug-30 06:34N 51°07' E 001°32'9 9.3
2014-Aug-30 05:34N 51°13' E 001°44'8 8.2
2014-Aug-30 04:33N 51°19' E 001°51'8 7.7
2014-Aug-30 03:33N 51°26' E 001°57'8 7.8
2014-Aug-30 02:33N 51°32' E 002°05'9 8.5
2014-Aug-30 01:33N 51°38' E 002°15'13 9.7
2014-Aug-30 00:15N 51°47' E 002°29'910.8
2014-Aug-29 23:23N 51°54' E 002°39'37 9.5
2014-Aug-29 19:29N 52°04' E 003°37'8 8.9
2014-Aug-29 18:34N 52°03' E 003°50'9 9.1
2014-Aug-29 17:34N 51°59' E 004°04'9 9.2
2014-Aug-29 16:33N 51°54' E 004°17'6 5.7
2014-Aug-29 15:33N 51°54' E 004°26'0 0.0
2014-Aug-29 14:33N 51°54' E 004°26'0 0.0
2014-Aug-29 13:33N 51°54' E 004°26'0 0.0
2014-Aug-29 12:33N 51°54' E 004°26'0 0.0
2014-Aug-29 11:33N 51°54' E 004°26'0 0.0
2014-Aug-29 10:33N 51°54' E 004°26'0 0.0
2014-Aug-29 09:33N 51°54' E 004°26'0 0.0
2014-Aug-29 08:33N 51°54' E 004°26'0 0.0
2014-Aug-29 07:33N 51°54' E 004°26'0 0.0
2014-Aug-29 06:33N 51°54' E 004°26'0 0.0
2014-Aug-29 05:33N 51°54' E 004°26'0 0.0
2014-Aug-29 04:33N 51°54' E 004°26'0 0.0
2014-Aug-29 03:33N 51°54' E 004°26'0 0.0
2014-Aug-29 02:33N 51°54' E 004°26'0 0.0
2014-Aug-29 01:33N 51°54' E 004°26'0 0.0
2014-Aug-29 00:33N 51°54' E 004°26'0 0.0
2014-Aug-28 23:33N 51°54' E 004°26'0 0.0
2014-Aug-28 22:33N 51°54' E 004°26'0 0.0
2014-Aug-28 21:33N 51°54' E 004°26'0 0.0
2014-Aug-28 20:33N 51°54' E 004°26'0 0.0
2014-Aug-28 19:33N 51°54' E 004°26'0 0.0
2014-Aug-28 18:33N 51°54' E 004°26'0 0.0
2014-Aug-28 17:33N 51°54' E 004°26'0 0.0
2014-Aug-28 16:33N 51°54' E 004°26'0 0.0
2014-Aug-28 15:33N 51°54' E 004°26'0 0.0
2014-Aug-28 14:33N 51°54' E 004°26'0 0.0
2014-Aug-28 13:33N 51°54' E 004°26'0 0.0
2014-Aug-28 12:33N 51°54' E 004°26'0 0.0
2014-Aug-28 11:33N 51°54' E 004°26'0 0.0
2014-Aug-28 10:33N 51°54' E 004°26'0 0.0
2014-Aug-28 09:33N 51°54' E 004°26'0 0.0
2014-Aug-28 08:33N 51°54' E 004°26'0 0.0
2014-Aug-28 07:33N 51°54' E 004°26'0 0.0
2014-Aug-28 06:33N 51°54' E 004°26'0 0.0
2014-Aug-28 05:32N 51°54' E 004°26'0 0.0
2014-Aug-28 04:32N 51°54' E 004°26'0 0.0
2014-Aug-28 03:23N 51°54' E 004°26'0 0.0
2014-Aug-28 02:29N 51°54' E 004°26'0 0.0
2014-Aug-28 01:32N 51°54' E 004°26'0 0.0
2014-Aug-28 00:32N 51°54' E 004°26'0 0.0
2014-Aug-27 23:32N 51°54' E 004°26'0 0.0
2014-Aug-27 22:32N 51°54' E 004°26'0 0.0
2014-Aug-27 21:32N 51°54' E 004°26'0 0.0
2014-Aug-27 20:32N 51°54' E 004°26'0 0.0
2014-Aug-27 19:32N 51°54' E 004°26'0 0.0
2014-Aug-27 18:23N 51°54' E 004°26'0 0.0
2014-Aug-27 17:32N 51°54' E 004°26'0 0.0
2014-Aug-27 16:32N 51°54' E 004°26'0 0.1
2014-Aug-27 15:32N 51°54' E 004°26'0 0.0
2014-Aug-27 14:32N 51°54' E 004°26'0 0.0
2014-Aug-27 13:32N 51°54' E 004°26'0 0.0
2014-Aug-27 12:29N 51°54' E 004°26'0 0.0
2014-Aug-27 11:32N 51°54' E 004°26'0 0.0
2014-Aug-27 10:32N 51°54' E 004°26'0 0.0
2014-Aug-27 09:32N 51°54' E 004°26'0 0.0
2014-Aug-27 08:32N 51°54' E 004°26'0 0.0
2014-Aug-27 07:32N 51°54' E 004°26'0 0.0
2014-Aug-27 06:32N 51°54' E 004°26'0 0.0
2014-Aug-27 05:29N 51°54' E 004°26'0 0.0
2014-Aug-27 04:32N 51°54' E 004°26'0 0.0
2014-Aug-27 03:32N 51°54' E 004°26'0 0.0
2014-Aug-27 02:32N 51°54' E 004°26'0 0.0
2014-Aug-27 01:32N 51°54' E 004°26'0 0.0
2014-Aug-27 00:32N 51°54' E 004°26'0 0.0
2014-Aug-26 23:32N 51°54' E 004°26'0 0.0
2014-Aug-26 22:32N 51°54' E 004°26'0 0.0
2014-Aug-26 21:32N 51°54' E 004°26'0 0.0
2014-Aug-26 20:32N 51°54' E 004°26'0 0.0
2014-Aug-26 19:32N 51°54' E 004°26'0 0.0
2014-Aug-26 18:31N 51°54' E 004°26'0 0.0
2014-Aug-26 17:31N 51°54' E 004°26'0 0.0
2014-Aug-26 16:31N 51°54' E 004°26'0 0.0
2014-Aug-26 15:28N 51°54' E 004°26'0 0.0
2014-Aug-26 14:31N 51°54' E 004°26'0 0.0
2014-Aug-26 13:31N 51°54' E 004°26'0 0.0
2014-Aug-26 12:31N 51°54' E 004°26'0 0.0
2014-Aug-26 11:31N 51°54' E 004°26'0 0.0
2014-Aug-26 10:31N 51°54' E 004°26'0 0.0
2014-Aug-26 09:31N 51°54' E 004°26'0 0.0
2014-Aug-26 08:31N 51°54' E 004°26'0 0.0
2014-Aug-26 07:31N 51°54' E 004°26'0 0.0
2014-Aug-26 06:28N 51°54' E 004°26'0 0.0
2014-Aug-26 05:31N 51°54' E 004°26'0 0.0
2014-Aug-26 04:31N 51°54' E 004°26'0 0.0
2014-Aug-26 03:31N 51°54' E 004°26'0 0.0
2014-Aug-26 02:31N 51°54' E 004°26'0 0.0
2014-Aug-26 01:31N 51°54' E 004°26'0 0.0
2014-Aug-26 00:31N 51°54' E 004°26'0 0.0
2014-Aug-25 23:31N 51°54' E 004°26'0 0.0
2014-Aug-25 22:31N 51°54' E 004°26'0 0.0
2014-Aug-25 21:31N 51°54' E 004°26'0 0.0
2014-Aug-25 20:31N 51°54' E 004°26'0 0.0
2014-Aug-25 19:31N 51°54' E 004°26'0 0.0
2014-Aug-25 18:31N 51°54' E 004°26'0 0.0
2014-Aug-25 17:31N 51°54' E 004°26'0 0.0
2014-Aug-25 16:31N 51°54' E 004°26'0 0.0
2014-Aug-25 15:31N 51°54' E 004°26'0 0.0
2014-Aug-25 14:31N 51°54' E 004°26'0 0.0
2014-Aug-25 13:31N 51°54' E 004°26'0 0.0
2014-Aug-25 12:31N 51°54' E 004°26'0 0.0
2014-Aug-25 11:31N 51°54' E 004°26'0 0.0
2014-Aug-25 10:31N 51°54' E 004°26'0 0.0
2014-Aug-25 09:33N 51°54' E 004°26'0 0.0
2014-Aug-25 08:33N 51°54' E 004°26'0 0.0
2014-Aug-25 07:33N 51°54' E 004°26'0 0.0
2014-Aug-25 06:33N 51°54' E 004°26'0 0.0
2014-Aug-25 05:33N 51°54' E 004°26'0 0.0
2014-Aug-25 04:33N 51°54' E 004°26'0 0.0
2014-Aug-25 03:33N 51°54' E 004°26'0 0.0
2014-Aug-25 02:33N 51°54' E 004°26'0 0.0
2014-Aug-25 01:33N 51°54' E 004°26'0 0.0
2014-Aug-25 00:33N 51°54' E 004°26'0 0.0
2014-Aug-24 23:33N 51°54' E 004°26'0 0.0
2014-Aug-24 22:33N 51°54' E 004°26'0 0.0
2014-Aug-24 21:33N 51°54' E 004°26'0 0.0
2014-Aug-24 20:33N 51°54' E 004°26'0 0.0
2014-Aug-24 19:33N 51°54' E 004°26'0 0.0
2014-Aug-24 18:33N 51°54' E 004°26'0 0.0
2014-Aug-24 17:33N 51°54' E 004°26'0 0.0
2014-Aug-24 16:33N 51°54' E 004°26'0 0.0
2014-Aug-24 15:33N 51°54' E 004°26'0 0.0
2014-Aug-24 14:33N 51°54' E 004°26'0 0.0
2014-Aug-24 13:33N 51°54' E 004°26'0 0.0
2014-Aug-24 12:33N 51°54' E 004°26'0 0.0
2014-Aug-24 11:33N 51°54' E 004°26'0 0.0
2014-Aug-24 10:33N 51°54' E 004°26'0 0.0
2014-Aug-24 09:33N 51°54' E 004°26'0 0.0
2014-Aug-24 08:33N 51°54' E 004°26'0 0.0
2014-Aug-24 07:33N 51°54' E 004°26'0 0.0
2014-Aug-24 06:33N 51°54' E 004°26'0 0.0
2014-Aug-24 05:33N 51°54' E 004°26'0 0.0
2014-Aug-24 04:33N 51°54' E 004°26'0 0.0
2014-Aug-24 03:33N 51°54' E 004°26'0 0.0
2014-Aug-24 02:33N 51°54' E 004°26'0 0.0
2014-Aug-24 01:33N 51°54' E 004°26'0 0.0
2014-Aug-24 00:33N 51°54' E 004°26'0 0.0
2014-Aug-23 23:33N 51°54' E 004°26'0 0.0
2014-Aug-23 22:32N 51°54' E 004°26'0 0.0
2014-Aug-23 21:32N 51°54' E 004°26'0 0.0
2014-Aug-23 20:32N 51°54' E 004°26'0 0.0
2014-Aug-23 19:32N 51°54' E 004°26'0 0.0
2014-Aug-23 03:32N 51°54' E 004°26'0 0.0
2014-Aug-23 02:32N 51°54' E 004°26'0 0.0
2014-Aug-23 01:32N 51°54' E 004°26'0 0.0
2014-Aug-23 00:32N 51°54' E 004°26'0 0.0
2014-Aug-22 23:32N 51°54' E 004°26'0 0.0
2014-Aug-22 22:32N 51°54' E 004°26'0 0.0
2014-Aug-22 21:29N 51°54' E 004°26'0 0.0
2014-Aug-22 20:32N 51°54' E 004°26'0 0.0
2014-Aug-22 19:32N 51°54' E 004°26'0 0.0
2014-Aug-22 18:32N 51°54' E 004°26'0 0.0
2014-Aug-22 17:32N 51°54' E 004°26'0 0.0
2014-Aug-22 16:32N 51°54' E 004°26'0 0.0
2014-Aug-22 15:32N 51°54' E 004°26'0 0.0
2014-Aug-22 14:32N 51°54' E 004°26'0 0.0
2014-Aug-22 13:32N 51°54' E 004°26'0 0.0
2014-Aug-22 12:31N 51°54' E 004°26'0 0.0
2014-Aug-22 11:28N 51°54' E 004°26'0 0.0
2014-Aug-22 10:31N 51°54' E 004°26'0 0.0
2014-Aug-22 09:31N 51°54' E 004°26'0 0.0
2014-Aug-22 08:31N 51°54' E 004°26'0 0.0
2014-Aug-22 07:31N 51°54' E 004°26'0 0.0
2014-Aug-22 06:31N 51°54' E 004°26'0 0.0
2014-Aug-22 05:31N 51°54' E 004°26'0 0.0
2014-Aug-22 04:31N 51°54' E 004°26'0 0.0
2014-Aug-22 03:31N 51°54' E 004°26'0 0.0
2014-Aug-22 02:31N 51°54' E 004°26'0 0.0
2014-Aug-22 01:31N 51°54' E 004°26'0 0.0
2014-Aug-22 00:28N 51°54' E 004°26'0 0.0
2014-Aug-21 23:28N 51°54' E 004°26'0 0.0
2014-Aug-21 22:31N 51°54' E 004°26'0 0.0
2014-Aug-21 21:31N 51°54' E 004°26'0 0.0
2014-Aug-21 20:31N 51°54' E 004°26'0 0.0
2014-Aug-21 19:31N 51°54' E 004°26'0 0.0
2014-Aug-21 18:31N 51°54' E 004°26'0 0.0
2014-Aug-21 17:31N 51°54' E 004°26'0 0.0
2014-Aug-21 16:31N 51°54' E 004°26'0 0.0
2014-Aug-21 15:31N 51°54' E 004°26'0 0.0
2014-Aug-21 14:31N 51°54' E 004°26'0 0.0
2014-Aug-21 13:31N 51°54' E 004°26'0 0.0
2014-Aug-21 12:31N 51°54' E 004°26'0 0.0
2014-Aug-21 11:31N 51°54' E 004°26'0 0.0
2014-Aug-21 10:31N 51°54' E 004°26'0 0.0
2014-Aug-21 09:31N 51°54' E 004°26'0 0.0
2014-Aug-21 08:31N 51°54' E 004°26'0 0.0
2014-Aug-21 07:31N 51°54' E 004°26'0 0.0
2014-Aug-21 06:31N 51°54' E 004°26'0 0.0
2014-Aug-21 05:31N 51°54' E 004°26'0 0.0
2014-Aug-21 04:31N 51°54' E 004°26'0 0.0
2014-Aug-21 03:34N 51°54' E 004°26'0 0.0
2014-Aug-21 02:33N 51°54' E 004°26'0 0.0
2014-Aug-21 01:33N 51°54' E 004°26'0 0.0
2014-Aug-21 00:33N 51°54' E 004°26'0 0.0
2014-Aug-20 23:33N 51°54' E 004°26'0 0.0
2014-Aug-20 22:33N 51°54' E 004°26'0 0.0
2014-Aug-20 21:33N 51°54' E 004°26'0 0.0
2014-Aug-20 20:33N 51°54' E 004°26'0 0.0
2014-Aug-20 19:33N 51°54' E 004°26'0 0.0
2014-Aug-20 18:30N 51°54' E 004°26'0 0.0
2014-Aug-20 17:33N 51°54' E 004°26'0 0.0
2014-Aug-20 16:30N 51°54' E 004°26'0 0.0
2014-Aug-20 15:33N 51°54' E 004°26'0 0.0
2014-Aug-20 14:33N 51°54' E 004°26'0 0.0
2014-Aug-20 13:33N 51°54' E 004°26'0 0.0
2014-Aug-20 12:30N 51°54' E 004°26'  
Track history (hours):
 
Tides and Currents Weather Stations Pressure Air Temp Water Temp Dewpoint Dewpoint Depression Visibility Wind Speed Wind Dir Waves Ship Positions

Hellas

Last reported at 2014-Aug-30 12:14 UTC. Time now 2014-Aug-31 02:35 UTC.
Position N 50°34' E 000°17'.

Length 50 m; draft 4.5 m.

Type: Tug. MMSI: 375113000.

Date/timePositionNaut miles runAvg speedWind from/ knotsBaromVisibWave heightAir tempDewpointWater temp
2014-Aug-30 12:14N 50°34' E 000°17'6 8.6
2014-Aug-30 11:33N 50°35' E 000°26'9 8.6
2014-Aug-30 10:33N 50°38' E 000°38'10 9.7
2014-Aug-30 09:33N 50°44' E 000°50'1211.4
2014-Aug-30 08:30N 50°52' E 001°05'1611.9
2014-Aug-30 07:07N 51°03' E 001°25'611.0
2014-Aug-30 06:34N 51°07' E 001°32'9 9.3
2014-Aug-30 05:34N 51°13' E 001°44'8 8.2
2014-Aug-30 04:33N 51°19' E 001°51'8 7.7
2014-Aug-30 03:33N 51°26' E 001°57'8 7.8
2014-Aug-30 02:33N 51°32' E 002°05'9 8.5
2014-Aug-30 01:33N 51°38' E 002°15'13 9.7
2014-Aug-30 00:15N 51°47' E 002°29'910.8
2014-Aug-29 23:23N 51°54' E 002°39'37 9.5
2014-Aug-29 19:29N 52°04' E 003°37'8 8.9
2014-Aug-29 18:34N 52°03' E 003°50'9 9.1
2014-Aug-29 17:34N 51°59' E 004°04'9 9.2
2014-Aug-29 16:33N 51°54' E 004°17'6 5.7
2014-Aug-29 15:33N 51°54' E 004°26'0 0.0
2014-Aug-29 14:33N 51°54' E 004°26'0 0.0
2014-Aug-29 13:33N 51°54' E 004°26'0 0.0
2014-Aug-29 12:33N 51°54' E 004°26'0 0.0
2014-Aug-29 11:33N 51°54' E 004°26'0 0.0
2014-Aug-29 10:33N 51°54' E 004°26'0 0.0
2014-Aug-29 09:33N 51°54' E 004°26'0 0.0
2014-Aug-29 08:33N 51°54' E 004°26'0 0.0
2014-Aug-29 07:33N 51°54' E 004°26'0 0.0
2014-Aug-29 06:33N 51°54' E 004°26'0 0.0
2014-Aug-29 05:33N 51°54' E 004°26'0 0.0
2014-Aug-29 04:33N 51°54' E 004°26'0 0.0
2014-Aug-29 03:33N 51°54' E 004°26'0 0.0
2014-Aug-29 02:33N 51°54' E 004°26'0 0.0
2014-Aug-29 01:33N 51°54' E 004°26'0 0.0
2014-Aug-29 00:33N 51°54' E 004°26'0 0.0
2014-Aug-28 23:33N 51°54' E 004°26'0 0.0
2014-Aug-28 22:33N 51°54' E 004°26'0 0.0
2014-Aug-28 21:33N 51°54' E 004°26'0 0.0
2014-Aug-28 20:33N 51°54' E 004°26'0 0.0
2014-Aug-28 19:33N 51°54' E 004°26'0 0.0
2014-Aug-28 18:33N 51°54' E 004°26'0 0.0
2014-Aug-28 17:33N 51°54' E 004°26'0 0.0
2014-Aug-28 16:33N 51°54' E 004°26'0 0.0
2014-Aug-28 15:33N 51°54' E 004°26'0 0.0
2014-Aug-28 14:33N 51°54' E 004°26'0 0.0
2014-Aug-28 13:33N 51°54' E 004°26'0 0.0
2014-Aug-28 12:33N 51°54' E 004°26'0 0.0
2014-Aug-28 11:33N 51°54' E 004°26'0 0.0
2014-Aug-28 10:33N 51°54' E 004°26'0 0.0
2014-Aug-28 09:33N 51°54' E 004°26'0 0.0
2014-Aug-28 08:33N 51°54' E 004°26'0 0.0
2014-Aug-28 07:33N 51°54' E 004°26'0 0.0
2014-Aug-28 06:33N 51°54' E 004°26'0 0.0
2014-Aug-28 05:32N 51°54' E 004°26'0 0.0
2014-Aug-28 04:32N 51°54' E 004°26'0 0.0
2014-Aug-28 03:23N 51°54' E 004°26'0 0.0
2014-Aug-28 02:29N 51°54' E 004°26'0 0.0
2014-Aug-28 01:32N 51°54' E 004°26'0 0.0
2014-Aug-28 00:32N 51°54' E 004°26'0 0.0
2014-Aug-27 23:32N 51°54' E 004°26'0 0.0
2014-Aug-27 22:32N 51°54' E 004°26'0 0.0
2014-Aug-27 21:32N 51°54' E 004°26'0 0.0
2014-Aug-27 20:32N 51°54' E 004°26'0 0.0
2014-Aug-27 19:32N 51°54' E 004°26'0 0.0
2014-Aug-27 18:23N 51°54' E 004°26'0 0.0
2014-Aug-27 17:32N 51°54' E 004°26'0 0.0
2014-Aug-27 16:32N 51°54' E 004°26'0 0.1
2014-Aug-27 15:32N 51°54' E 004°26'0 0.0
2014-Aug-27 14:32N 51°54' E 004°26'0 0.0
2014-Aug-27 13:32N 51°54' E 004°26'0 0.0
2014-Aug-27 12:29N 51°54' E 004°26'0 0.0
2014-Aug-27 11:32N 51°54' E 004°26'0 0.0
2014-Aug-27 10:32N 51°54' E 004°26'0 0.0
2014-Aug-27 09:32N 51°54' E 004°26'0 0.0
2014-Aug-27 08:32N 51°54' E 004°26'0 0.0
2014-Aug-27 07:32N 51°54' E 004°26'0 0.0
2014-Aug-27 06:32N 51°54' E 004°26'0 0.0
2014-Aug-27 05:29N 51°54' E 004°26'0 0.0
2014-Aug-27 04:32N 51°54' E 004°26'0 0.0
2014-Aug-27 03:32N 51°54' E 004°26'0 0.0
2014-Aug-27 02:32N 51°54' E 004°26'0 0.0
2014-Aug-27 01:32N 51°54' E 004°26'0 0.0
2014-Aug-27 00:32N 51°54' E 004°26'0 0.0
2014-Aug-26 23:32N 51°54' E 004°26'0 0.0
2014-Aug-26 22:32N 51°54' E 004°26'0 0.0
2014-Aug-26 21:32N 51°54' E 004°26'0 0.0
2014-Aug-26 20:32N 51°54' E 004°26'0 0.0
2014-Aug-26 19:32N 51°54' E 004°26'0 0.0
2014-Aug-26 18:31N 51°54' E 004°26'0 0.0
2014-Aug-26 17:31N 51°54' E 004°26'0 0.0
2014-Aug-26 16:31N 51°54' E 004°26'0 0.0
2014-Aug-26 15:28N 51°54' E 004°26'0 0.0
2014-Aug-26 14:31N 51°54' E 004°26'0 0.0
2014-Aug-26 13:31N 51°54' E 004°26'0 0.0
2014-Aug-26 12:31N 51°54' E 004°26'0 0.0
2014-Aug-26 11:31N 51°54' E 004°26'0 0.0
2014-Aug-26 10:31N 51°54' E 004°26'0 0.0
2014-Aug-26 09:31N 51°54' E 004°26'0 0.0
2014-Aug-26 08:31N 51°54' E 004°26'0 0.0
2014-Aug-26 07:31N 51°54' E 004°26'0 0.0
2014-Aug-26 06:28N 51°54' E 004°26'0 0.0
2014-Aug-26 05:31N 51°54' E 004°26'0 0.0
2014-Aug-26 04:31N 51°54' E 004°26'0 0.0
2014-Aug-26 03:31N 51°54' E 004°26'0 0.0
2014-Aug-26 02:31N 51°54' E 004°26'0 0.0
2014-Aug-26 01:31N 51°54' E 004°26'0 0.0
2014-Aug-26 00:31N 51°54' E 004°26'0 0.0
2014-Aug-25 23:31N 51°54' E 004°26'0 0.0
2014-Aug-25 22:31N 51°54' E 004°26'0 0.0
2014-Aug-25 21:31N 51°54' E 004°26'0 0.0
2014-Aug-25 20:31N 51°54' E 004°26'0 0.0
2014-Aug-25 19:31N 51°54' E 004°26'0 0.0
2014-Aug-25 18:31N 51°54' E 004°26'0 0.0
2014-Aug-25 17:31N 51°54' E 004°26'0 0.0
2014-Aug-25 16:31N 51°54' E 004°26'0 0.0
2014-Aug-25 15:31N 51°54' E 004°26'0 0.0
2014-Aug-25 14:31N 51°54' E 004°26'0 0.0
2014-Aug-25 13:31N 51°54' E 004°26'0 0.0
2014-Aug-25 12:31N 51°54' E 004°26'0 0.0
2014-Aug-25 11:31N 51°54' E 004°26'0 0.0
2014-Aug-25 10:31N 51°54' E 004°26'0 0.0
2014-Aug-25 09:33N 51°54' E 004°26'0 0.0
2014-Aug-25 08:33N 51°54' E 004°26'0 0.0
2014-Aug-25 07:33N 51°54' E 004°26'0 0.0
2014-Aug-25 06:33N 51°54' E 004°26'0 0.0
2014-Aug-25 05:33N 51°54' E 004°26'0 0.0
2014-Aug-25 04:33N 51°54' E 004°26'0 0.0
2014-Aug-25 03:33N 51°54' E 004°26'0 0.0
2014-Aug-25 02:33N 51°54' E 004°26'0 0.0
2014-Aug-25 01:33N 51°54' E 004°26'0 0.0
2014-Aug-25 00:33N 51°54' E 004°26'0 0.0
2014-Aug-24 23:33N 51°54' E 004°26'0 0.0
2014-Aug-24 22:33N 51°54' E 004°26'0 0.0
2014-Aug-24 21:33N 51°54' E 004°26'0 0.0
2014-Aug-24 20:33N 51°54' E 004°26'0 0.0
2014-Aug-24 19:33N 51°54' E 004°26'0 0.0
2014-Aug-24 18:33N 51°54' E 004°26'0 0.0
2014-Aug-24 17:33N 51°54' E 004°26'0 0.0
2014-Aug-24 16:33N 51°54' E 004°26'0 0.0
2014-Aug-24 15:33N 51°54' E 004°26'0 0.0
2014-Aug-24 14:33N 51°54' E 004°26'0 0.0
2014-Aug-24 13:33N 51°54' E 004°26'0 0.0
2014-Aug-24 12:33N 51°54' E 004°26'0 0.0
2014-Aug-24 11:33N 51°54' E 004°26'0 0.0
2014-Aug-24 10:33N 51°54' E 004°26'0 0.0
2014-Aug-24 09:33N 51°54' E 004°26'0 0.0
2014-Aug-24 08:33N 51°54' E 004°26'0 0.0
2014-Aug-24 07:33N 51°54' E 004°26'0 0.0
2014-Aug-24 06:33N 51°54' E 004°26'0 0.0
2014-Aug-24 05:33N 51°54' E 004°26'0 0.0
2014-Aug-24 04:33N 51°54' E 004°26'0 0.0
2014-Aug-24 03:33N 51°54' E 004°26'0 0.0
2014-Aug-24 02:33N 51°54' E 004°26'0 0.0
2014-Aug-24 01:33N 51°54' E 004°26'0 0.0
2014-Aug-24 00:33N 51°54' E 004°26'0 0.0
2014-Aug-23 23:33N 51°54' E 004°26'0 0.0
2014-Aug-23 22:32N 51°54' E 004°26'0 0.0
2014-Aug-23 21:32N 51°54' E 004°26'0 0.0
2014-Aug-23 20:32N 51°54' E 004°26'0 0.0
2014-Aug-23 19:32N 51°54' E 004°26'0 0.0
2014-Aug-23 03:32N 51°54' E 004°26'0 0.0
2014-Aug-23 02:32N 51°54' E 004°26'0 0.0
2014-Aug-23 01:32N 51°54' E 004°26'0 0.0
2014-Aug-23 00:32N 51°54' E 004°26'0 0.0
2014-Aug-22 23:32N 51°54' E 004°26'0 0.0
2014-Aug-22 22:32N 51°54' E 004°26'0 0.0
2014-Aug-22 21:29N 51°54' E 004°26'0 0.0
2014-Aug-22 20:32N 51°54' E 004°26'0 0.0
2014-Aug-22 19:32N 51°54' E 004°26'0 0.0
2014-Aug-22 18:32N 51°54' E 004°26'0 0.0
2014-Aug-22 17:32N 51°54' E 004°26'0 0.0
2014-Aug-22 16:32N 51°54' E 004°26'0 0.0
2014-Aug-22 15:32N 51°54' E 004°26'0 0.0
2014-Aug-22 14:32N 51°54' E 004°26'0 0.0
2014-Aug-22 13:32N 51°54' E 004°26'0 0.0
2014-Aug-22 12:31N 51°54' E 004°26'0 0.0
2014-Aug-22 11:28N 51°54' E 004°26'0 0.0
2014-Aug-22 10:31N 51°54' E 004°26'0 0.0
2014-Aug-22 09:31N 51°54' E 004°26'0 0.0
2014-Aug-22 08:31N 51°54' E 004°26'0 0.0
2014-Aug-22 07:31N 51°54' E 004°26'0 0.0
2014-Aug-22 06:31N 51°54' E 004°26'0 0.0
2014-Aug-22 05:31N 51°54' E 004°26'0 0.0
2014-Aug-22 04:31N 51°54' E 004°26'0 0.0
2014-Aug-22 03:31N 51°54' E 004°26'0 0.0
2014-Aug-22 02:31N 51°54' E 004°26'0 0.0
2014-Aug-22 01:31N 51°54' E 004°26'0 0.0
2014-Aug-22 00:28N 51°54' E 004°26'0 0.0
2014-Aug-21 23:28N 51°54' E 004°26'0 0.0
2014-Aug-21 22:31N 51°54' E 004°26'0 0.0
2014-Aug-21 21:31N 51°54' E 004°26'0 0.0
2014-Aug-21 20:31N 51°54' E 004°26'0 0.0
2014-Aug-21 19:31N 51°54' E 004°26'0 0.0
2014-Aug-21 18:31N 51°54' E 004°26'0 0.0
2014-Aug-21 17:31N 51°54' E 004°26'0 0.0
2014-Aug-21 16:31N 51°54' E 004°26'0 0.0
2014-Aug-21 15:31N 51°54' E 004°26'0 0.0
2014-Aug-21 14:31N 51°54' E 004°26'0 0.0
2014-Aug-21 13:31N 51°54' E 004°26'0 0.0
2014-Aug-21 12:31N 51°54' E 004°26'0 0.0
2014-Aug-21 11:31N 51°54' E 004°26'0 0.0
2014-Aug-21 10:31N 51°54' E 004°26'0 0.0
2014-Aug-21 09:31N 51°54' E 004°26'0 0.0
2014-Aug-21 08:31N 51°54' E 004°26'0 0.0
2014-Aug-21 07:31N 51°54' E 004°26'0 0.0
2014-Aug-21 06:31N 51°54' E 004°26'0 0.0
2014-Aug-21 05:31N 51°54' E 004°26'0 0.0
2014-Aug-21 04:31N 51°54' E 004°26'0 0.0
2014-Aug-21 03:34N 51°54' E 004°26'0 0.0
2014-Aug-21 02:33N 51°54' E 004°26'0 0.0
2014-Aug-21 01:33N 51°54' E 004°26'0 0.0
2014-Aug-21 00:33N 51°54' E 004°26'0 0.0
2014-Aug-20 23:33N 51°54' E 004°26'0 0.0
2014-Aug-20 22:33N 51°54' E 004°26'0 0.0
2014-Aug-20 21:33N 51°54' E 004°26'0 0.0
2014-Aug-20 20:33N 51°54' E 004°26'0 0.0
2014-Aug-20 19:33N 51°54' E 004°26'0 0.0
2014-Aug-20 18:30N 51°54' E 004°26'0 0.0
2014-Aug-20 17:33N 51°54' E 004°26'0 0.0
2014-Aug-20 16:30N 51°54' E 004°26'0 0.0
2014-Aug-20 15:33N 51°54' E 004°26'0 0.0
2014-Aug-20 14:33N 51°54' E 004°26'0 0.0
2014-Aug-20 13:33N 51°54' E 004°26'0 0.0
2014-Aug-20 12:30N 51°54' E 004°26'  

Dump ship's entire track history